Time;durP1;ratioP1;P1;durP2;ratioP2;P2;SDS_P1;SDS_P2;PMS_P1;PMS_P2;Temp;Humidity;BMP_temperature;BMP_pressure;BME280_temperature;BME280_humidity;BME280_pressure;Samples;Min_cycle;Max_cycle;Signal;HPM_P1;HPM_P2
2021/12/16 00:02:33;;;;;;;21.55;15.20;;;;;;;5.40;100.00;101053.56;5093906;28;20081;-69
2021/12/16 00:08:03;;;;;;;20.23;14.35;;;;;;;5.61;100.00;101056.28;5102570;28;20036;-69
2021/12/16 00:10:39;;;;;;;21.15;14.52;;;;;;;5.59;100.00;101057.09;5092358;28;20092;-69
2021/12/16 00:30:00;;;;;;;25.38;15.82;;;;;;;5.24;100.00;101075.25;5093683;28;20027;-69
2021/12/16 00:34:57;;;;;;;;;;;;;;;5.59;100.00;101085.69;5093989;28;20036;-70
2021/12/16 00:37:26;;;;;;;22.30;15.32;;;;;;;5.35;100.00;101051.84;5093007;28;19962;-69
2021/12/16 00:39:54;;;;;;;23.77;15.52;;;;;;;5.39;100.00;101081.31;5093225;28;20036;-70
2021/12/16 00:56:10;;;;;;;19.13;12.45;;;;;;;5.53;100.00;101082.25;5093079;28;20109;-69
2021/12/16 00:58:45;;;;;;;21.05;13.52;;;;;;;5.41;100.00;101074.59;5092631;28;20032;-69
2021/12/16 01:41:11;;;;;;;20.17;13.57;;;;;;;5.64;100.00;101050.44;5092059;28;20032;-70
2021/12/16 01:57:13;;;;;;;16.70;12.07;;;;;;;5.32;100.00;101017.34;5091903;28;20028;-69
2021/12/16 01:59:41;;;;;;;16.75;11.55;;;;;;;5.27;100.00;101012.25;5091460;28;20031;-70
2021/12/16 02:02:15;;;;;;;15.02;10.60;;;;;;;5.25;100.00;101034.09;5091637;28;20081;-70
2021/12/16 02:05:09;;;;;;;14.63;10.40;;;;;;;5.49;100.00;101050.28;5091420;28;20031;-69
2021/12/16 02:10:13;;;;;;;16.27;11.65;;;;;;;5.40;100.00;101040.97;5091450;28;20028;-70
2021/12/16 02:37:20;;;;;;;16.55;11.13;;;;;;;5.32;100.00;101049.28;5088690;28;19919;-69
2021/12/16 02:39:52;;;;;;;15.80;11.38;;;;;;;5.39;100.00;101056.09;5090895;28;20070;-69
2021/12/16 02:42:23;;;;;;;14.52;10.38;;;;;;;5.05;100.00;101001.97;5089713;28;20036;-70
2021/12/16 02:50:18;;;;;;;15.60;10.82;;;;;;;5.57;100.00;101036.91;5091075;28;20095;-70
2021/12/16 02:52:44;;;;;;;17.08;11.20;;;;;;;5.45;100.00;101035.97;5089459;28;20032;-70
2021/12/16 02:55:13;;;;;;;16.65;11.15;;;;;;;5.51;100.00;101048.63;5090759;28;20476;-70
2021/12/16 02:57:48;;;;;;;17.73;11.82;;;;;;;5.51;100.00;101044.44;5090869;28;20032;-69
2021/12/16 03:00:16;;;;;;;19.10;11.85;;;;;;;5.38;100.00;101044.31;5090718;28;20584;-70
2021/12/16 03:02:47;;;;;;;15.32;11.15;;;;;;;5.37;100.00;101042.63;5090784;28;20029;-70
2021/12/16 03:05:13;;;;;;;17.13;11.32;;;;;;;5.26;100.00;101010.59;5090900;28;20024;-69
2021/12/16 03:07:40;;;;;;;15.75;11.27;;;;;;;5.34;100.00;101032.50;5090618;28;20115;-69
2021/12/16 03:13:03;;;;;;;17.77;11.80;;;;;;;5.39;100.00;101030.88;5091072;28;20543;-70
2021/12/16 03:15:52;;;;;;;16.45;10.70;;;;;;;5.29;100.00;101009.75;5090529;28;20423;-70
2021/12/16 03:18:41;;;;;;;15.05;11.18;;;;;;;5.35;100.00;101029.16;5090606;28;20055;-70
2021/12/16 03:21:18;;;;;;;16.65;11.07;;;;;;;5.37;100.00;101035.06;5090606;28;20480;-70
2021/12/16 03:32:12;;;;;;;15.45;10.90;;;;;;;5.04;100.00;101016.22;5090488;28;20138;-70
2021/12/16 03:37:15;;;;;;;15.45;10.48;;;;;;;5.26;100.00;101048.41;5094717;28;20035;-70
2021/12/16 03:39:57;;;;;;;16.63;11.40;;;;;;;5.25;100.00;101049.22;5094367;28;20024;-69
2021/12/16 03:42:33;;;;;;;17.13;11.20;;;;;;;5.26;100.00;101047.53;5094176;28;20123;-69
2021/12/16 03:48:15;;;;;;;;;;;;;;;5.26;100.00;101050.91;5094446;28;20108;-70
2021/12/16 03:50:41;;;;;;;18.05;12.88;;;;;;;5.29;100.00;101050.09;5094144;28;20370;-70
2021/12/16 03:53:13;;;;;;;17.58;12.35;;;;;;;5.28;100.00;101054.31;5092822;28;20027;-69
2021/12/16 03:55:40;;;;;;;;;;;;;;;5.25;100.00;101056.78;5094450;28;20516;-69
2021/12/16 03:58:07;;;;;;;16.90;11.30;;;;;;;5.26;100.00;101055.97;5092677;28;20015;-69
2021/12/16 04:00:45;;;;;;;16.45;12.15;;;;;;;5.23;100.00;101057.56;5093868;28;20028;-69
2021/12/16 04:03:12;;;;;;;17.85;12.02;;;;;;;5.07;100.00;101021.28;5093718;28;20027;-69
2021/12/16 04:05:40;;;;;;;17.30;11.43;;;;;;;5.32;100.00;101059.38;5092455;28;20024;-69
2021/12/16 04:08:07;;;;;;;17.10;11.65;;;;;;;5.32;100.00;101064.41;5092530;28;20024;-69
2021/12/16 04:10:49;;;;;;;15.52;11.07;;;;;;;5.02;100.00;101022.06;5093896;28;20031;-70
2021/12/16 04:13:17;;;;;;;15.05;10.70;;;;;;;5.12;100.00;101046.53;5092358;28;20384;-70
2021/12/16 04:15:43;;;;;;;17.02;11.30;;;;;;;5.08;100.00;101048.19;5092478;28;20072;-70
2021/12/16 04:18:15;;;;;;;13.90;9.52;;;;;;;5.12;100.00;101046.53;5093773;28;20024;-71
2021/12/16 04:20:42;;;;;;;15.15;10.23;;;;;;;4.97;100.00;101037.13;5094015;28;20035;-75
2021/12/16 04:23:10;;;;;;;19.77;12.50;;;;;;;4.99;100.00;101055.63;5093650;28;20054;-72
2021/12/16 04:25:40;;;;;;;17.63;11.07;;;;;;;5.04;100.00;101054.03;5093317;28;20044;-70
2021/12/16 04:28:14;;;;;;;16.73;10.57;;;;;;;4.94;100.00;101064.81;5092812;28;20031;-73
2021/12/16 04:30:41;;;;;;;15.55;10.75;;;;;;;4.91;100.00;101056.38;5091510;28;20077;-71
2021/12/16 04:33:13;;;;;;;17.70;11.55;;;;;;;4.78;100.00;101047.81;5093166;28;20028;-70
2021/12/16 04:35:40;;;;;;;21.38;12.85;;;;;;;4.82;100.00;101061.28;5091963;28;20368;-72
2021/12/16 04:38:09;;;;;;;18.05;11.52;;;;;;;4.64;100.00;101033.34;5091764;28;20024;-73
2021/12/16 04:40:36;;;;;;;20.77;13.25;;;;;;;4.68;100.00;101056.06;5073213;28;20043;-69
2021/12/16 04:43:04;;;;;;;23.90;14.27;;;;;;;4.69;100.00;101057.78;5072313;28;20036;-69
2021/12/16 04:45:33;;;;;;;22.67;13.10;;;;;;;4.67;100.00;101067.00;5071785;28;20024;-70
2021/12/16 04:48:02;;;;;;;17.25;10.48;;;;;;;4.66;100.00;101052.69;5072973;28;20031;-72
2021/12/16 04:50:30;;;;;;;15.30;9.75;;;;;;;4.67;100.00;101061.97;5073026;28;20411;-72
2021/12/16 04:52:57;;;;;;;15.95;10.25;;;;;;;4.73;100.00;101059.53;5071948;28;20037;-70
2021/12/16 04:55:24;;;;;;;17.70;10.52;;;;;;;4.77;100.00;101061.25;5071395;28;20489;-70
2021/12/16 04:57:50;;;;;;;16.77;10.00;;;;;;;4.67;100.00;101058.59;5072356;28;20036;-69
2021/12/16 05:00:21;;;;;;;18.25;10.15;;;;;;;4.70;100.00;101046.00;5071839;28;20032;-70
2021/12/16 05:02:48;;;;;;;17.30;10.98;;;;;;;4.68;100.00;101046.00;5072358;28;20027;-70
2021/12/16 05:05:14;;;;;;;17.95;10.27;;;;;;;4.68;100.00;101058.59;5072290;28;20032;-69
2021/12/16 05:07:42;;;;;;;20.20;10.60;;;;;;;4.70;100.00;101061.97;5070953;28;20032;-70
2021/12/16 05:10:13;;;;;;;19.83;10.95;;;;;;;4.53;100.00;101025.69;5070913;28;20020;-70
2021/12/16 05:12:44;;;;;;;18.92;10.60;;;;;;;4.35;100.00;101003.63;5069857;28;20097;-71
2021/12/16 05:15:30;;;;;;;18.13;10.20;;;;;;;4.76;100.00;101063.72;5071796;28;20146;-71
2021/12/16 05:17:59;;;;;;;17.17;10.50;;;;;;;4.79;100.00;101063.78;5068151;28;20436;-71
2021/12/16 05:20:30;;;;;;;18.40;10.52;;;;;;;4.75;100.00;101067.09;5050942;28;20040;-73
2021/12/16 05:28:23;;;;;;;20.75;11.20;;;;;;;4.72;100.00;101062.00;5052316;28;20025;-69
2021/12/16 05:30:50;;;;;;;21.08;11.25;;;;;;;4.76;100.00;101063.72;5051437;28;20029;-70
2021/12/16 05:33:19;;;;;;;18.75;10.70;;;;;;;4.67;100.00;101056.06;5053842;28;20452;-70
2021/12/16 05:35:45;;;;;;;21.88;12.10;;;;;;;4.78;100.00;101057.03;5058784;28;20558;-70
2021/12/16 05:38:11;;;;;;;21.23;12.55;;;;;;;4.82;100.00;101048.69;5051599;28;20032;-70
2021/12/16 05:40:39;;;;;;;22.23;11.55;;;;;;;4.73;100.00;101059.53;5052411;28;20492;-74
2021/12/16 05:43:09;;;;;;;17.60;10.88;;;;;;;4.75;100.00;101044.41;5050418;28;20057;-74
2021/12/16 05:45:41;;;;;;;19.13;10.68;;;;;;;6.17;100.00;101050.91;5052005;28;20378;-73
2021/12/16 05:48:09;;;;;;;21.77;12.02;;;;;;;4.89;100.00;101053.81;5051667;28;20512;-70
2021/12/16 05:50:40;;;;;;;21.05;12.43;;;;;;;4.80;100.00;101061.28;5051803;28;20497;-71
2021/12/16 05:53:10;;;;;;;22.75;13.27;;;;;;;4.74;100.00;101051.13;5051423;28;20040;-72
2021/12/16 05:55:37;;;;;;;25.88;15.55;;;;;;;4.74;100.00;101047.75;5051315;28;20409;-71
2021/12/16 05:58:06;;;;;;;23.10;14.10;;;;;;;4.61;100.00;101046.75;5048961;28;20029;-69
2021/12/16 06:00:48;;;;;;;21.42;12.65;;;;;;;4.67;100.00;101041.81;5051138;28;20462;-71
2021/12/16 06:03:14;;;;;;;23.08;13.65;;;;;;;4.63;100.00;101040.06;5051146;28;20104;-71
2021/12/16 06:05:41;;;;;;;22.52;14.57;;;;;;;4.72;100.00;101045.22;5050610;28;20681;-71
2021/12/16 06:08:11;;;;;;;17.52;11.00;;;;;;;4.63;100.00;101040.06;5051013;28;20178;-71
2021/12/16 06:13:05;;;;;;;20.67;12.68;;;;;;;4.69;100.00;101042.69;5050834;28;20124;-70
2021/12/16 06:29:29;;;;;;;20.55;11.20;;;;;;;4.75;100.00;101045.28;5051285;28;20031;-71
2021/12/16 06:31:56;;;;;;;20.58;10.90;;;;;;;4.61;100.00;101011.50;5051103;28;20025;-71
2021/12/16 06:34:24;;;;;;;17.00;10.52;;;;;;;4.81;100.00;101044.50;5049834;28;20017;-71
2021/12/16 06:36:51;;;;;;;20.85;12.43;;;;;;;4.74;100.00;101037.69;5050145;28;20390;-71
2021/12/16 06:39:22;;;;;;;19.73;11.80;;;;;;;4.82;100.00;101036.09;5049700;28;20419;-71
2021/12/16 06:41:58;;;;;;;19.08;11.25;;;;;;;4.82;100.00;101046.19;5050908;28;20439;-71
2021/12/16 06:44:34;;;;;;;18.83;10.63;;;;;;;4.79;100.00;101051.19;5049670;28;20044;-71
2021/12/16 06:47:08;;;;;;;19.25;11.38;;;;;;;4.82;100.00;101053.72;5049709;28;20408;-70
2021/12/16 06:49:38;;;;;;;19.38;12.05;;;;;;;4.86;100.00;101053.78;5049808;28;20106;-70
2021/12/16 06:52:17;;;;;;;22.73;12.95;;;;;;;4.86;100.00;101060.50;5051153;28;20021;-71
2021/12/16 06:57:27;;;;;;;23.73;15.05;;;;;;;4.84;100.00;101065.53;5050684;28;20029;-70
2021/12/16 07:00:06;;;;;;;29.65;15.00;;;;;;;4.83;100.00;101046.19;5049393;28;20064;-70
2021/12/16 07:02:50;;;;;;;20.80;12.60;;;;;;;4.78;100.00;101074.66;5050745;28;20021;-71
2021/12/16 07:05:19;;;;;;;18.85;11.40;;;;;;;4.87;100.00;101070.59;5050975;28;20031;-70
2021/12/16 07:07:45;;;;;;;27.02;13.27;;;;;;;4.89;100.00;101058.84;5050612;28;20037;-70
2021/12/16 07:10:13;;;;;;;19.92;11.80;;;;;;;4.94;100.00;101067.34;5054036;28;20183;-71
2021/12/16 07:12:41;;;;;;;15.93;11.00;;;;;;;4.76;100.00;101043.56;5054726;28;20446;-71
2021/12/16 07:15:12;;;;;;;19.33;11.90;;;;;;;4.97;100.00;101067.34;5054507;28;20025;-71
2021/12/16 07:17:39;;;;;;;14.90;7.88;;;;;;;4.94;100.00;101062.28;5053433;28;20508;-71
2021/12/16 07:20:08;;;;;;;17.08;10.45;;;;;;;4.62;100.00;101005.63;5054747;28;20033;-71
2021/12/16 07:22:34;;;;;;;17.80;10.52;;;;;;;4.88;100.00;101059.69;5053603;28;20510;-71
2021/12/16 07:25:01;;;;;;;20.88;11.70;;;;;;;4.99;100.00;101059.84;5053289;28;20469;-71
2021/12/16 07:27:27;;;;;;;19.40;10.77;;;;;;;5.07;100.00;101068.34;5054331;28;20028;-71
2021/12/16 07:29:52;;;;;;;21.92;12.02;;;;;;;5.07;100.00;101064.13;5053066;28;20420;-71
2021/12/16 07:32:18;;;;;;;23.85;11.23;;;;;;;4.90;100.00;101052.16;5054533;28;20448;-71
2021/12/16 07:34:43;;;;;;;17.88;10.43;;;;;;;4.98;100.00;101063.16;5054155;28;20029;-71
2021/12/16 07:37:09;;;;;;;18.00;9.85;;;;;;;5.12;100.00;101079.31;5053166;28;20022;-71
2021/12/16 07:39:42;;;;;;;17.10;10.05;;;;;;;5.10;100.00;101079.28;5053019;28;20040;-72
2021/12/16 07:42:12;;;;;;;15.23;8.63;;;;;;;5.05;100.00;101075.84;5054018;28;20041;-71
2021/12/16 07:44:37;;;;;;;16.65;10.05;;;;;;;4.93;100.00;101059.78;5052906;28;20051;-70
2021/12/16 07:47:07;;;;;;;13.85;8.70;;;;;;;5.12;100.00;101090.25;5052635;28;20029;-70
2021/12/16 07:49:35;;;;;;;16.00;8.63;;;;;;;5.20;100.00;101098.75;5053901;28;20033;-70
2021/12/16 07:52:05;;;;;;;20.50;11.77;;;;;;;5.09;100.00;101066.69;5054031;28;20024;-70
2021/12/16 07:54:31;;;;;;;15.93;9.70;;;;;;;5.20;100.00;101096.22;5053934;28;20037;-71
2021/12/16 07:57:00;;;;;;;14.38;9.30;;;;;;;5.21;100.00;101102.09;5053830;28;20100;-70
2021/12/16 07:59:28;;;;;;;14.93;9.68;;;;;;;5.12;100.00;101062.53;5052606;28;20112;-70
2021/12/16 08:01:55;;;;;;;13.85;9.70;;;;;;;5.28;100.00;101093.78;5053617;28;20033;-70
2021/12/16 08:04:26;;;;;;;15.43;9.15;;;;;;;5.18;100.00;101087.78;5053570;28;20044;-71
2021/12/16 08:06:54;;;;;;;16.17;9.65;;;;;;;5.03;100.00;101057.34;5052485;28;20029;-71
2021/12/16 08:09:21;;;;;;;16.65;10.20;;;;;;;5.29;100.00;101100.50;5052263;28;20037;-70
2021/12/16 08:11:48;;;;;;;17.10;11.05;;;;;;;5.26;100.00;101103.00;5052327;28;20112;-72
2021/12/16 08:14:15;;;;;;;21.17;13.38;;;;;;;5.25;100.00;101099.63;5052403;28;20024;-71
2021/12/16 08:16:40;;;;;;;16.88;11.50;;;;;;;5.28;100.00;101104.72;5053615;28;20056;-72
2021/12/16 08:19:07;;;;;;;27.88;17.77;;;;;;;5.33;100.00;101096.38;5052377;28;20032;-71
2021/12/16 08:21:33;;;;;;;20.45;12.57;;;;;;;5.29;100.00;101106.38;5052677;28;20060;-71
2021/12/16 08:24:01;;;;;;;33.55;21.55;;;;;;;5.35;100.00;101089.66;5053246;28;20063;-70
2021/12/16 08:26:28;;;;;;;24.23;13.50;;;;;;;5.33;100.00;101097.19;5052017;28;20413;-71
2021/12/16 08:28:54;;;;;;;16.52;10.70;;;;;;;5.31;100.00;101095.50;5053230;28;20025;-72
2021/12/16 08:31:20;;;;;;;16.80;10.20;;;;;;;5.33;100.00;101099.69;5052174;28;20138;-71
2021/12/16 08:33:47;;;;;;;17.63;11.48;;;;;;;5.37;100.00;101100.59;5053360;28;20146;-71
2021/12/16 08:36:13;;;;;;;24.17;16.05;;;;;;;5.17;100.00;101057.50;5052087;28;20159;-71
2021/12/16 08:38:39;;;;;;;19.95;11.88;;;;;;;5.33;100.00;101098.88;5052136;28;20444;-71
2021/12/16 08:41:22;;;;;;;17.50;10.35;;;;;;;5.41;100.00;101097.28;5051855;28;20024;-71
2021/12/16 08:43:49;;;;;;;19.90;10.73;;;;;;;5.35;100.00;101087.97;5052768;28;20075;-71
2021/12/16 08:46:20;;;;;;;22.73;13.07;;;;;;;5.15;100.00;101056.69;5052857;28;20025;-71
2021/12/16 08:48:46;;;;;;;23.80;13.73;;;;;;;5.29;100.00;101088.75;5051987;28;20420;-71
2021/12/16 08:51:14;;;;;;;69.05;34.40;;;;;;;5.29;100.00;101081.19;5052850;28;20021;-71
2021/12/16 08:53:40;;;;;;;18.67;12.07;;;;;;;5.26;100.00;101088.72;5051705;28;20020;-71
2021/12/16 08:56:06;;;;;;;20.70;12.00;;;;;;;5.39;100.00;101102.28;5051876;28;20154;-71
2021/12/16 08:58:32;;;;;;;21.38;12.68;;;;;;;5.41;100.00;101092.25;5051575;28;20631;-71
2021/12/16 09:01:03;;;;;;;16.48;10.25;;;;;;;5.34;100.00;101087.94;5052882;28;20409;-71
2021/12/16 09:03:30;;;;;;;15.47;10.07;;;;;;;5.39;100.00;101089.69;5051518;28;20408;-71
2021/12/16 09:05:55;;;;;;;37.75;21.23;;;;;;;5.33;100.00;101076.19;5051396;28;20287;-71
2021/12/16 09:08:21;;;;;;;18.40;11.23;;;;;;;5.43;100.00;101095.63;5051399;28;20427;-70
2021/12/16 09:10:46;;;;;;;19.70;12.13;;;;;;;5.38;100.00;101090.53;5052812;28;20029;-71
2021/12/16 09:13:15;;;;;;;23.80;13.55;;;;;;;5.34;100.00;101075.34;5051304;28;20029;-70
2021/12/16 09:15:48;;;;;;;17.60;11.30;;;;;;;5.29;100.00;101077.81;5052456;28;20481;-71
2021/12/16 09:18:15;;;;;;;18.70;12.02;;;;;;;5.39;100.00;101076.25;5052216;28;20025;-70
2021/12/16 09:20:41;;;;;;;19.05;10.95;;;;;;;5.38;100.00;101069.50;5052189;28;20528;-71
2021/12/16 09:23:09;;;;;;;17.88;11.48;;;;;;;5.35;100.00;101069.50;5051197;28;20060;-71
2021/12/16 09:25:34;;;;;;;20.63;13.73;;;;;;;5.40;100.00;101066.19;5050953;28;20017;-70
2021/12/16 09:28:00;;;;;;;23.75;14.48;;;;;;;5.46;100.00;101073.81;5052195;28;20029;-71
2021/12/16 09:30:27;;;;;;;33.10;18.33;;;;;;;5.36;100.00;101071.16;5050700;28;20052;-71
2021/12/16 09:32:57;;;;;;;23.33;14.20;;;;;;;5.30;100.00;101064.41;5049699;28;20029;-71
2021/12/16 09:35:23;;;;;;;16.75;10.68;;;;;;;5.24;100.00;101060.13;5050877;28;20079;-70
2021/12/16 09:37:51;;;;;;;53.88;25.98;;;;;;;5.35;100.00;101064.44;5051949;28;20029;-71
2021/12/16 09:40:23;;;;;;;25.98;14.32;;;;;;;5.18;100.00;101036.53;5050738;28;20573;-71
2021/12/16 09:42:50;;;;;;;40.45;20.77;;;;;;;5.35;100.00;101052.66;5050512;28;20124;-71
2021/12/16 09:45:16;;;;;;;30.42;15.43;;;;;;;5.29;100.00;101055.97;5050585;28;20036;-71
2021/12/16 09:47:45;;;;;;;28.52;14.50;;;;;;;5.44;100.00;101051.94;5051734;28;20028;-71
2021/12/16 09:50:17;;;;;;;43.75;18.77;;;;;;;5.22;100.00;101054.22;5051800;28;20025;-71
2021/12/16 09:52:43;;;;;;;;;;;;;;;5.43;100.00;101042.69;5050814;28;20514;-71
2021/12/16 09:55:09;;;;;;;47.47;18.48;;;;;;;5.29;100.00;101043.38;5050394;28;19951;-71
2021/12/16 09:57:36;;;;;;;28.75;13.48;;;;;;;5.24;100.00;101042.50;5050383;28;20106;-71
2021/12/16 10:00:09;;;;;;;77.65;24.95;;;;;;;5.21;100.00;101049.16;5050493;28;20040;-71
2021/12/16 10:02:35;;;;;;;37.03;16.83;;;;;;;5.34;100.00;101045.09;5051597;28;20021;-71
2021/12/16 10:05:02;;;;;;;15.93;9.82;;;;;;;5.24;100.00;101037.44;5050307;28;20052;-71
2021/12/16 10:07:33;;;;;;;18.42;10.88;;;;;;;5.32;100.00;101040.03;5051447;28;20501;-71
2021/12/16 10:09:59;;;;;;;42.05;18.35;;;;;;;5.37;100.00;101032.53;5051871;28;20435;-71
2021/12/16 10:12:29;;;;;;;23.65;13.80;;;;;;;5.31;100.00;101030.78;5050011;28;20033;-71
2021/12/16 10:17:28;;;;;;;59.78;23.98;;;;;;;5.26;100.00;101038.31;5051298;28;20104;-70
2021/12/16 10:19:58;;;;;;;42.67;18.23;;;;;;;5.24;100.00;101007.22;5050975;28;20071;-71
2021/12/16 10:22:37;;;;;;;65.40;26.52;;;;;;;5.35;100.00;101041.75;5051085;28;20032;-70
2021/12/16 10:25:15;;;;;;;22.33;11.35;;;;;;;5.31;100.00;101043.38;5051342;28;20027;-70
2021/12/16 10:28:08;;;;;;;68.97;24.27;;;;;;;5.41;100.00;101047.69;5050202;28;20087;-71
2021/12/16 10:30:41;;;;;;;20.65;11.80;;;;;;;5.15;100.00;100994.50;5051011;28;20104;-71
2021/12/16 10:33:14;;;;;;;26.83;14.48;;;;;;;5.34;100.00;101022.41;5049789;28;20369;-71
2021/12/16 10:35:40;;;;;;;28.95;14.38;;;;;;;5.33;100.00;101030.81;5049981;28;20560;-71
2021/12/16 10:38:07;;;;;;;46.97;19.50;;;;;;;5.46;100.00;101032.63;5049557;28;20115;-70
2021/12/16 10:40:35;;;;;;;48.88;22.88;;;;;;;5.42;100.00;101034.28;5051183;28;20017;-71
2021/12/16 10:43:11;;;;;;;43.85;22.67;;;;;;;5.41;100.00;101025.00;5050642;28;20446;-71
2021/12/16 10:45:49;;;;;;;24.10;14.55;;;;;;;5.32;100.00;101017.34;5051198;28;20091;-71
2021/12/16 10:48:26;;;;;;;37.17;20.63;;;;;;;5.45;100.00;101021.69;5050720;28;20024;-70
2021/12/16 10:51:20;;;;;;;24.83;16.00;;;;;;;5.41;100.00;101019.13;5049506;28;20035;-70
2021/12/16 10:54:04;;;;;;;44.63;25.85;;;;;;;5.38;100.00;101014.91;5050772;28;20025;-71
2021/12/16 10:56:41;;;;;;;27.63;17.60;;;;;;;5.45;100.00;101020.84;5050809;28;20033;-70
2021/12/16 10:59:15;;;;;;;24.95;15.85;;;;;;;5.41;100.00;101021.66;5050843;28;20029;-70
2021/12/16 11:01:50;;;;;;;28.60;16.20;;;;;;;5.40;100.00;101012.38;5049509;28;20087;-71
2021/12/16 11:04:21;;;;;;;22.17;13.40;;;;;;;5.39;100.00;101015.75;5050682;28;20112;-71
2021/12/16 11:07:01;;;;;;;30.27;18.17;;;;;;;5.28;100.00;100987.91;5049626;28;20484;-71
2021/12/16 11:09:54;;;;;;;28.42;16.17;;;;;;;5.36;100.00;101011.53;5049285;28;20129;-71
2021/12/16 11:12:52;;;;;;;22.25;13.88;;;;;;;5.31;100.00;101010.59;5049459;28;20114;-71
2021/12/16 11:15:28;;;;;;;23.20;14.85;;;;;;;5.42;100.00;101008.19;5050316;28;20509;-71
2021/12/16 11:18:08;;;;;;;24.80;16.13;;;;;;;5.40;100.00;101002.31;5050474;28;20033;-70
2021/12/16 11:20:44;;;;;;;24.20;15.15;;;;;;;5.43;100.00;101003.16;5050664;28;20143;-71
2021/12/16 11:23:18;;;;;;;25.65;16.02;;;;;;;5.20;100.00;100971.88;5050665;28;20082;-72
2021/12/16 11:25:51;;;;;;;28.25;17.65;;;;;;;5.44;100.00;100997.31;5049111;28;20033;-71
2021/12/16 11:28:24;;;;;;;27.42;16.75;;;;;;;5.48;100.00;100999.03;5050425;28;20123;-70
2021/12/16 11:30:52;;;;;;;25.90;17.27;;;;;;;5.54;100.00;100994.03;5050459;28;20112;-70
2021/12/16 11:33:23;;;;;;;25.30;17.13;;;;;;;5.47;100.00;100996.50;5050312;28;20044;-70
2021/12/16 11:36:00;;;;;;;23.13;13.55;;;;;;;5.50;100.00;100994.00;5049159;28;20119;-70
2021/12/16 11:38:31;;;;;;;21.42;14.45;;;;;;;5.51;100.00;100990.63;5050447;28;20428;-71
2021/12/16 11:41:00;;;;;;;25.90;16.27;;;;;;;5.51;100.00;100990.63;5049220;28;20059;-70
2021/12/16 11:43:47;;;;;;;20.02;12.82;;;;;;;5.48;100.00;100994.00;5050059;28;20107;-70
2021/12/16 11:46:21;;;;;;;22.17;12.57;;;;;;;5.40;100.00;100993.06;5050222;28;20548;-70
2021/12/16 11:48:47;;;;;;;22.70;14.20;;;;;;;5.47;100.00;100983.91;5050310;28;20040;-71
2021/12/16 11:51:16;;;;;;;23.10;14.73;;;;;;;5.02;100.00;100921.28;5050307;28;20021;-71
2021/12/16 11:53:56;;;;;;;32.17;20.23;;;;;;;5.33;100.00;100985.44;5048956;28;20087;-70
2021/12/16 11:56:38;;;;;;;22.73;14.27;;;;;;;5.29;100.00;100982.03;5050809;28;20025;-71
2021/12/16 11:59:05;;;;;;;22.15;13.98;;;;;;;5.39;100.00;100986.31;5052573;28;20481;-71
2021/12/16 12:01:31;;;;;;;23.27;13.57;;;;;;;5.23;100.00;100977.78;5052502;28;20029;-71
2021/12/16 12:04:04;;;;;;;25.15;17.10;;;;;;;5.31;100.00;100974.50;5053851;28;20480;-70
2021/12/16 12:06:31;;;;;;;23.58;14.77;;;;;;;5.27;100.00;100969.41;5052353;28;20033;-70
2021/12/16 12:08:59;;;;;;;27.13;16.20;;;;;;;5.19;100.00;100971.00;5053694;28;20100;-71
2021/12/16 12:11:34;;;;;;;23.35;13.52;;;;;;;5.19;100.00;100982.75;5054188;28;20025;-70
2021/12/16 12:14:20;;;;;;;26.10;16.75;;;;;;;5.23;100.00;100984.47;5053547;28;20033;-70
2021/12/16 12:16:48;;;;;;;24.02;14.10;;;;;;;5.18;100.00;100981.09;5053436;28;20496;-71
2021/12/16 12:19:20;;;;;;;25.70;16.50;;;;;;;5.09;100.00;100953.28;5053293;28;20032;-71
2021/12/16 12:22:02;;;;;;;31.67;18.05;;;;;;;5.21;100.00;100978.56;5052339;28;20029;-70
2021/12/16 12:24:33;;;;;;;;;;;;;;;5.22;100.00;100983.66;5052493;28;20524;-70
2021/12/16 12:27:04;;;;;;;25.53;15.10;;;;;;;5.15;100.00;100978.56;5052093;28;20328;-70
2021/12/16 12:29:32;;;;;;;24.83;15.30;;;;;;;5.04;100.00;100958.28;5053285;28;20045;-71
2021/12/16 12:32:02;;;;;;;23.13;14.88;;;;;;;5.22;100.00;100978.63;5053304;28;20021;-71
2021/12/16 12:34:29;;;;;;;23.70;15.13;;;;;;;5.00;100.00;100958.22;5051956;28;20025;-71
2021/12/16 12:36:57;;;;;;;28.65;15.10;;;;;;;5.03;100.00;100956.56;5052045;28;20033;-71
2021/12/16 12:39:27;;;;;;;25.98;17.23;;;;;;;5.16;100.00;100976.03;5053194;28;20574;-70
2021/12/16 12:41:54;;;;;;;26.50;16.98;;;;;;;5.12;100.00;100979.34;5052969;28;20029;-71
2021/12/16 12:44:21;;;;;;;27.20;16.15;;;;;;;5.14;100.00;100985.25;5052997;28;20045;-71
2021/12/16 12:46:48;;;;;;;24.50;16.13;;;;;;;5.16;100.00;100982.75;5051953;28;20107;-71
2021/12/16 12:49:17;;;;;;;29.42;18.73;;;;;;;5.19;100.00;100981.09;5052806;28;20037;-72
2021/12/16 12:51:47;;;;;;;27.88;17.73;;;;;;;5.15;100.00;100976.84;5052922;28;20639;-71
2021/12/16 12:54:28;;;;;;;24.03;16.33;;;;;;;5.13;100.00;100986.06;5052904;28;20040;-71
2021/12/16 12:56:58;;;;;;;22.23;14.75;;;;;;;5.06;100.00;100984.34;5052894;28;20420;-72
2021/12/16 12:59:38;;;;;;;28.00;17.60;;;;;;;5.13;100.00;100985.25;5051559;28;20103;-70
2021/12/16 13:02:24;;;;;;;31.25;17.20;;;;;;;4.93;100.00;100959.81;5051436;28;20059;-71
2021/12/16 13:05:04;;;;;;;30.33;17.90;;;;;;;5.04;100.00;100986.00;5052566;28;20025;-70
2021/12/16 13:07:43;;;;;;;25.83;16.92;;;;;;;5.10;100.00;100986.06;5051050;28;20033;-71
2021/12/16 13:10:23;;;;;;;34.22;20.50;;;;;;;5.02;100.00;100987.66;5051390;28;20028;-71
2021/12/16 13:13:15;;;;;;;22.27;15.32;;;;;;;5.01;100.00;100972.53;5051515;28;20056;-70
2021/12/16 13:15:54;;;;;;;23.02;14.52;;;;;;;5.05;100.00;100989.38;5052544;28;20029;-71
2021/12/16 13:24:27;;;;;;;23.77;14.90;;;;;;;5.02;100.00;100981.75;5052493;28;20500;-71
2021/12/16 13:27:12;;;;;;;23.33;14.30;;;;;;;4.92;100.00;100968.22;5050813;28;20450;-70
2021/12/16 13:29:41;;;;;;;21.98;14.05;;;;;;;4.98;100.00;100988.44;5051037;28;20025;-70
2021/12/16 13:32:19;;;;;;;23.90;15.55;;;;;;;5.03;100.00;100981.75;5051005;28;20405;-70
2021/12/16 13:35:32;;;;;;;26.08;16.45;;;;;;;4.59;100.00;100927.56;5051900;28;20500;-70
2021/12/16 13:37:57;;;;;;;;;;;;;;;5.03;100.00;100979.25;5052092;28;20079;-70
2021/12/16 13:40:25;;;;;;;23.65;14.65;;;;;;;4.97;100.00;100986.72;5052111;28;19916;-70
2021/12/16 13:42:59;;;;;;;23.23;15.15;;;;;;;4.93;100.00;100984.19;5051661;28;20035;-70
2021/12/16 13:45:37;;;;;;;24.83;15.30;;;;;;;4.92;100.00;100978.28;5050344;28;20025;-70
2021/12/16 14:08:00;;;;;;;27.70;17.13;;;;;;;4.67;100.00;100938.56;5051217;28;20504;-70
2021/12/16 14:10:49;;;;;;;27.50;15.15;;;;;;;4.98;100.00;100982.56;5051476;28;20477;-70
2021/12/16 14:25:15;;;;;;;25.23;16.15;;;;;;;4.86;100.00;100978.22;5051320;28;20036;-71
2021/12/16 14:39:02;;;;;;;23.88;14.93;;;;;;;4.86;100.00;100979.91;5051061;28;20024;-71
2021/12/16 14:45:08;;;;;;;21.20;14.10;;;;;;;4.81;100.00;100982.38;5050721;28;20053;-70
2021/12/16 14:47:09;;;;;;;25.90;16.83;;;;;;;4.79;100.00;100979.00;5050620;28;20028;-70
2021/12/16 14:49:43;;;;;;;27.40;17.40;;;;;;;4.85;100.00;100980.75;5050843;28;20025;-70
2021/12/16 14:52:22;;;;;;;23.95;15.18;;;;;;;4.81;100.00;100979.88;5050996;28;20021;-70
2021/12/16 14:54:50;;;;;;;24.02;15.45;;;;;;;4.87;100.00;100987.47;5049567;28;20040;-70
2021/12/16 14:57:28;;;;;;;26.67;16.42;;;;;;;4.80;100.00;100973.13;5050624;28;20520;-70
2021/12/16 14:59:54;;;;;;;33.75;19.98;;;;;;;4.77;100.00;100979.81;5049317;28;20064;-70
2021/12/16 15:02:25;;;;;;;25.65;16.25;;;;;;;4.75;100.00;100978.94;5049355;28;20112;-70
2021/12/16 15:04:51;;;;;;;25.90;17.83;;;;;;;4.84;100.00;100979.88;5050584;28;20489;-70
2021/12/16 15:07:16;;;;;;;23.73;15.90;;;;;;;4.85;100.00;100974.00;5049141;28;20044;-70
2021/12/16 15:09:43;;;;;;;36.45;20.80;;;;;;;4.83;100.00;100975.66;5050949;28;20033;-70